Time;durP1;ratioP1;P1;durP2;ratioP2;P2;SDS_P1;SDS_P2;PMS_P1;PMS_P2;Temp;Humidity;BMP_temperature;BMP_pressure;BME280_temperature;BME280_humidity;BME280_pressure;Samples;Min_cycle;Max_cycle;Signal;HPM_P1;HPM_P2
2024/03/30 00:01:35;;;;;;;6.85;4.60;;;;;;;12.47;70.76;98062.03;4170569;28;20516;-71
2024/03/30 00:03:35;;;;;;;7.88;4.88;;;;;;;12.48;70.99;98062.84;4162584;28;20044;-72
2024/03/30 00:05:36;;;;;;;8.15;5.50;;;;;;;12.38;71.35;98062.44;4165169;28;20249;-71
2024/03/30 00:07:40;;;;;;;7.05;4.90;;;;;;;12.38;71.41;98063.28;4165755;28;20448;-71
2024/03/30 00:09:41;;;;;;;7.82;5.70;;;;;;;12.42;71.35;98061.00;4174159;28;20053;-71
2024/03/30 00:11:41;;;;;;;8.25;4.70;;;;;;;12.52;70.89;98066.78;4166550;28;20045;-71
2024/03/30 00:13:42;;;;;;;7.75;5.13;;;;;;;12.60;70.72;98068.44;4168122;28;20022;-71
2024/03/30 00:15:42;;;;;;;8.13;4.80;;;;;;;12.59;70.77;98067.59;4158550;28;20041;-71
2024/03/30 00:17:43;;;;;;;6.85;4.20;;;;;;;12.60;70.54;98065.78;4171407;28;20048;-72
2024/03/30 00:19:43;;;;;;;6.95;4.45;;;;;;;12.63;70.76;98062.66;4166373;28;20533;-71
2024/03/30 00:21:44;;;;;;;7.05;4.05;;;;;;;12.71;70.17;98056.28;4168654;28;20659;-71
2024/03/30 00:23:45;;;;;;;6.72;4.63;;;;;;;12.71;70.17;98050.91;4161438;28;20030;-71
2024/03/30 00:25:55;;;;;;;6.55;4.07;;;;;;;12.76;70.26;98054.63;4159791;28;20517;-71
2024/03/30 00:27:55;;;;;;;7.03;4.43;;;;;;;12.77;69.94;98055.44;4161497;28;20041;-71
2024/03/30 00:29:57;;;;;;;6.65;3.95;;;;;;;12.76;70.04;98057.31;4162487;28;20036;-71
2024/03/30 00:31:57;;;;;;;7.15;4.57;;;;;;;12.68;70.35;98051.31;4169600;28;20021;-72
2024/03/30 00:33:58;;;;;;;6.53;4.43;;;;;;;12.67;70.19;98044.31;4163166;28;20430;-71
2024/03/30 00:35:58;;;;;;;7.13;5.30;;;;;;;12.57;70.59;98044.72;4160058;28;20406;-71
2024/03/30 00:38:02;;;;;;;7.38;4.97;;;;;;;12.66;70.38;98037.31;4161899;28;20576;-71
2024/03/30 00:40:03;;;;;;;7.75;5.20;;;;;;;12.73;69.96;98038.13;4153503;28;20036;-71
2024/03/30 00:42:04;;;;;;;8.63;5.82;;;;;;;12.66;70.17;98045.34;4161963;28;20017;-72
2024/03/30 00:44:04;;;;;;;7.90;5.47;;;;;;;12.55;70.36;98047.63;4155475;28;20025;-71
2024/03/30 00:46:05;;;;;;;7.95;5.22;;;;;;;12.56;70.18;98045.75;4157598;28;20129;-71
2024/03/30 00:48:06;;;;;;;6.10;4.32;;;;;;;12.52;70.51;98042.66;4157673;28;20355;-71
2024/03/30 00:50:07;;;;;;;7.20;4.90;;;;;;;12.50;70.46;98044.72;4153217;28;20025;-71
2024/03/30 00:52:07;;;;;;;9.43;4.95;;;;;;;12.44;70.67;98041.00;4157904;28;20034;-71
2024/03/30 00:54:09;;;;;;;8.13;5.40;;;;;;;12.32;71.00;98038.13;4163817;28;20025;-71
2024/03/30 00:56:09;;;;;;;8.13;5.28;;;;;;;12.44;70.75;98041.00;4153961;28;20033;-71
2024/03/30 00:58:10;;;;;;;7.05;4.10;;;;;;;12.52;70.39;98041.81;4148211;28;20069;-71
2024/03/30 01:00:11;;;;;;;7.13;4.20;;;;;;;12.54;70.20;98045.97;4158561;28;20486;-71
2024/03/30 01:02:12;;;;;;;7.07;5.10;;;;;;;12.48;70.47;98033.38;4161572;28;20018;-71
2024/03/30 01:04:12;;;;;;;6.95;4.55;;;;;;;12.48;70.44;98036.06;4156185;28;20076;-71
2024/03/30 01:06:13;;;;;;;8.20;4.70;;;;;;;12.46;70.49;98032.78;4159106;28;20572;-71
2024/03/30 01:08:13;;;;;;;7.65;4.95;;;;;;;12.44;70.29;98035.66;4160273;28;20521;-71
2024/03/30 01:10:14;;;;;;;7.03;4.65;;;;;;;12.47;70.15;98023.69;4162388;28;20033;-73
2024/03/30 01:12:15;;;;;;;7.55;4.18;;;;;;;12.43;70.24;98020.59;4159694;28;20555;-73
2024/03/30 01:14:17;;;;;;;6.15;3.92;;;;;;;12.41;70.29;98029.88;4156033;28;20026;-70
2024/03/30 01:16:18;;;;;;;7.35;4.22;;;;;;;12.43;70.37;98012.56;4164065;28;20025;-72
2024/03/30 01:18:20;;;;;;;8.55;5.00;;;;;;;12.31;70.64;98019.59;4166793;28;20562;-73
2024/03/30 01:20:20;;;;;;;;;;;;;;;12.32;71.35;98021.25;4153919;28;20120;-71
2024/03/30 01:22:21;;;;;;;6.17;4.33;;;;;;;12.25;70.71;98021.22;4165178;28;20273;-73
2024/03/30 01:24:21;;;;;;;8.23;4.03;;;;;;;12.25;70.56;98015.03;4167994;28;20026;-70
2024/03/30 01:26:23;;;;;;;6.57;4.05;;;;;;;12.28;70.42;98015.44;4169977;28;20029;-70
2024/03/30 01:28:25;;;;;;;7.43;4.53;;;;;;;12.11;71.23;98008.84;4166093;28;20051;-73
2024/03/30 01:30:25;;;;;;;7.68;4.38;;;;;;;12.17;70.93;98013.41;4160794;28;20386;-72
2024/03/30 01:32:26;;;;;;;6.43;4.20;;;;;;;12.19;70.83;98013.19;4162907;28;20025;-72
2024/03/30 01:34:27;;;;;;;7.35;4.65;;;;;;;12.11;71.52;98019.56;4157647;28;20026;-72
2024/03/30 01:36:27;;;;;;;7.78;4.60;;;;;;;12.14;71.10;98013.81;4162935;28;20032;-72
2024/03/30 01:38:30;;;;;;;8.07;4.40;;;;;;;11.97;71.83;98024.91;4163452;28;20032;-72
2024/03/30 01:40:32;;;;;;;8.23;4.97;;;;;;;11.97;71.83;98024.91;4164356;28;20079;-70
2024/03/30 01:42:32;;;;;;;5.93;4.25;;;;;;;12.00;71.40;98032.50;4164311;28;20062;-72
2024/03/30 01:44:32;;;;;;;6.88;4.53;;;;;;;12.05;71.12;98021.19;4156930;28;20490;-71
2024/03/30 01:46:33;;;;;;;6.10;4.10;;;;;;;12.05;71.33;98021.19;4164339;28;20385;-71
2024/03/30 01:48:35;;;;;;;;;;;;;;;11.98;71.71;98023.03;4164830;28;20045;-71
2024/03/30 01:50:36;;;;;;;5.70;3.70;;;;;;;12.05;71.04;98020.38;4165512;28;19917;-71
2024/03/30 01:52:36;;;;;;;6.80;3.97;;;;;;;12.12;70.86;98022.03;4166673;28;20052;-71
2024/03/30 01:54:38;;;;;;;7.10;4.10;;;;;;;12.00;71.25;98023.66;4165022;28;20025;-71
2024/03/30 01:56:40;;;;;;;7.70;4.68;;;;;;;11.90;71.60;98015.16;4167488;28;20056;-71
2024/03/30 01:58:41;;;;;;;7.88;4.47;;;;;;;11.99;71.21;98006.78;4168903;28;20014;-71
2024/03/30 02:00:41;;;;;;;5.93;4.00;;;;;;;12.06;71.11;98017.50;4170971;28;20034;-72
2024/03/30 02:02:44;;;;;;;6.72;3.97;;;;;;;12.12;70.74;98019.38;4168133;28;20034;-71
2024/03/30 02:04:46;;;;;;;6.80;4.00;;;;;;;12.13;70.67;98014.81;4169572;28;20025;-71
2024/03/30 02:06:46;;;;;;;7.13;4.10;;;;;;;12.14;70.49;98014.59;4168989;28;20046;-71
2024/03/30 02:08:49;;;;;;;5.70;3.55;;;;;;;12.17;70.64;98018.75;4171125;28;20036;-70
2024/03/30 02:10:49;;;;;;;6.70;3.92;;;;;;;12.13;70.46;98012.16;4171850;28;20040;-71
2024/03/30 02:12:50;;;;;;;5.68;3.55;;;;;;;12.13;70.52;98007.63;4169431;28;20037;-71
2024/03/30 02:14:51;;;;;;;5.05;3.05;;;;;;;12.14;70.39;98001.22;4164193;28;20037;-71
2024/03/30 02:16:51;;;;;;;5.90;3.30;;;;;;;12.14;70.35;98003.09;4170598;28;20095;-71
2024/03/30 02:18:53;;;;;;;6.40;3.88;;;;;;;12.13;70.45;98001.44;4170430;28;20038;-71
2024/03/30 02:20:53;;;;;;;5.95;3.70;;;;;;;12.05;70.47;98001.63;4168933;28;20035;-71
2024/03/30 02:22:56;;;;;;;5.30;3.40;;;;;;;12.06;70.52;97998.75;4175834;28;20025;-71
2024/03/30 02:24:56;;;;;;;5.97;3.03;;;;;;;12.02;70.57;98005.56;4169270;28;20112;-71
2024/03/30 02:26:57;;;;;;;5.47;2.90;;;;;;;11.98;70.85;97998.94;4164028;28;20025;-71
2024/03/30 02:28:57;;;;;;;5.00;3.08;;;;;;;11.99;70.51;98004.13;4162733;28;20033;-71
2024/03/30 02:30:58;;;;;;;7.50;3.72;;;;;;;11.97;70.50;98000.81;4170443;28;20029;-71
2024/03/30 02:32:59;;;;;;;6.75;3.63;;;;;;;11.89;70.86;98008.16;4169999;28;20029;-70
2024/03/30 02:34:59;;;;;;;6.10;3.67;;;;;;;11.87;70.80;98008.38;4165003;28;20705;-71
2024/03/30 02:37:00;;;;;;;7.80;4.30;;;;;;;11.78;70.81;98010.41;4160491;28;20065;-71
2024/03/30 02:39:01;;;;;;;6.15;4.05;;;;;;;11.50;71.53;98011.34;4163425;28;20076;-71
2024/03/30 02:41:01;;;;;;;10.25;4.80;;;;;;;11.50;71.55;98008.69;4168678;28;20389;-71
2024/03/30 02:43:02;;;;;;;9.32;4.70;;;;;;;11.33;71.74;98008.22;4163115;28;20033;-70
2024/03/30 02:45:05;;;;;;;9.27;4.82;;;;;;;11.20;72.23;98018.84;4159250;28;20094;-71
2024/03/30 02:47:05;;;;;;;12.63;4.70;;;;;;;11.28;72.10;98004.50;4158967;28;20481;-71
2024/03/30 02:49:06;;;;;;;7.30;4.65;;;;;;;11.23;72.16;98010.44;4158394;28;20041;-71
2024/03/30 02:51:06;;;;;;;10.75;4.47;;;;;;;11.25;72.08;98011.03;4153691;28;20084;-71
2024/03/30 02:53:07;;;;;;;6.45;3.85;;;;;;;11.20;72.15;98008.16;4163487;28;20522;-71
2024/03/30 02:55:07;;;;;;;6.47;4.18;;;;;;;11.21;72.06;98001.78;4160111;28;20349;-70
2024/03/30 02:57:08;;;;;;;9.35;4.80;;;;;;;11.05;72.49;98001.06;4162264;28;20017;-70
2024/03/30 02:59:08;;;;;;;6.45;4.18;;;;;;;11.12;72.29;97997.63;4168039;28;20568;-71
2024/03/30 03:01:09;;;;;;;7.07;3.85;;;;;;;11.26;71.80;97990.50;4167901;28;20028;-71
2024/03/30 03:03:10;;;;;;;6.30;3.65;;;;;;;11.33;71.45;97992.16;4170621;28;20064;-71
2024/03/30 03:05:10;;;;;;;8.05;4.57;;;;;;;11.15;72.09;97999.88;4172226;28;20421;-71
2024/03/30 03:07:11;;;;;;;7.15;4.25;;;;;;;11.08;72.13;97995.34;4176642;28;20190;-72
2024/03/30 03:09:11;;;;;;;8.77;4.97;;;;;;;10.95;72.72;97999.78;4173776;28;20034;-71
2024/03/30 03:11:11;;;;;;;7.13;4.55;;;;;;;10.88;73.05;97994.41;4157289;28;20026;-71
2024/03/30 03:13:12;;;;;;;7.22;4.90;;;;;;;10.87;72.99;98000.75;4153149;28;20033;-72
2024/03/30 03:15:12;;;;;;;5.68;3.80;;;;;;;10.89;72.70;97990.72;4160051;28;20026;-71
2024/03/30 03:17:15;;;;;;;6.28;3.58;;;;;;;10.95;72.55;97994.44;4162263;28;20651;-74
2024/03/30 03:19:19;;;;;;;7.45;3.97;;;;;;;10.91;72.66;97991.34;4173062;28;20021;-71
2024/03/30 03:21:21;;;;;;;6.32;3.67;;;;;;;10.82;73.00;98003.22;4178893;28;20033;-71
2024/03/30 03:23:21;;;;;;;7.47;4.55;;;;;;;10.79;72.91;97995.59;4169790;28;20025;-71
2024/03/30 03:25:23;;;;;;;8.20;4.53;;;;;;;10.74;73.30;98004.19;4161729;28;20498;-72
2024/03/30 03:27:26;;;;;;;6.93;3.75;;;;;;;10.89;72.85;97986.22;4174107;28;20044;-71
2024/03/30 03:29:27;;;;;;;5.90;3.45;;;;;;;10.98;72.07;97992.19;4177684;28;20025;-70
2024/03/30 03:31:27;;;;;;;5.45;3.20;;;;;;;11.05;71.87;97971.66;4155759;28;20120;-70
2024/03/30 03:33:27;;;;;;;7.85;3.35;;;;;;;11.11;71.72;97979.94;4151496;28;20035;-71
2024/03/30 03:35:28;;;;;;;5.75;3.40;;;;;;;11.06;72.05;97986.69;4161918;28;20032;-70
2024/03/30 03:37:28;;;;;;;7.03;3.83;;;;;;;11.13;71.80;97985.91;4162448;28;20597;-70
2024/03/30 03:39:29;;;;;;;7.05;4.20;;;;;;;11.06;72.09;97976.00;4154064;28;20386;-71
2024/03/30 03:41:29;;;;;;;7.65;4.38;;;;;;;10.89;72.80;97974.66;4162352;28;20112;-70
2024/03/30 03:43:29;;;;;;;5.97;3.42;;;;;;;11.04;72.23;97967.38;4162010;28;20541;-71
2024/03/30 03:45:30;;;;;;;6.00;3.70;;;;;;;10.96;72.02;97972.03;4162722;28;20485;-71
2024/03/30 03:47:30;;;;;;;7.65;4.05;;;;;;;10.84;72.63;97966.44;4162551;28;20292;-71
2024/03/30 03:49:31;;;;;;;7.80;4.00;;;;;;;10.86;72.50;97956.38;4161635;28;20554;-71
2024/03/30 03:51:31;;;;;;;6.82;3.45;;;;;;;10.96;72.09;97956.00;4161988;28;20485;-71
2024/03/30 03:53:32;;;;;;;5.85;3.78;;;;;;;10.99;71.77;97950.25;4164700;28;20090;-71
2024/03/30 03:55:33;;;;;;;7.80;3.25;;;;;;;10.81;72.49;97966.81;4168323;28;20605;-71
2024/03/30 03:57:33;;;;;;;7.82;4.53;;;;;;;10.74;72.75;97974.78;4162048;28;20033;-73
2024/03/30 03:59:33;;;;;;;6.13;3.45;;;;;;;10.77;72.64;97969.88;4161128;28;20123;-71
2024/03/30 04:01:34;;;;;;;5.57;3.35;;;;;;;10.71;72.43;97970.66;4153698;28;20033;-71
2024/03/30 04:03:36;;;;;;;7.18;3.35;;;;;;;10.86;71.96;97970.56;4153867;28;20474;-72
2024/03/30 04:05:36;;;;;;;7.05;3.78;;;;;;;10.70;72.45;97970.88;4159702;28;20037;-71
2024/03/30 04:07:37;;;;;;;6.05;3.70;;;;;;;10.70;72.36;97966.34;4161324;28;20605;-71
2024/03/30 04:09:37;;;;;;;6.35;3.58;;;;;;;10.70;72.58;97992.25;4155639;28;20080;-72
2024/03/30 04:11:37;;;;;;;6.72;3.80;;;;;;;10.65;72.74;97987.50;4151876;28;20036;-72
2024/03/30 04:13:38;;;;;;;6.78;3.78;;;;;;;10.67;72.45;97993.47;4161976;28;20037;-71
2024/03/30 04:15:40;;;;;;;6.68;3.95;;;;;;;10.59;72.49;97997.13;4160502;28;20026;-71
2024/03/30 04:17:40;;;;;;;8.90;4.68;;;;;;;10.51;72.97;98010.63;4161852;28;20147;-71
2024/03/30 04:19:41;;;;;;;8.57;3.72;;;;;;;10.45;73.06;98012.22;4161701;28;20033;-71
2024/03/30 04:21:41;;;;;;;6.75;3.40;;;;;;;10.52;72.74;98000.75;4147353;28;20041;-71
2024/03/30 04:23:42;;;;;;;6.55;3.75;;;;;;;10.67;72.30;98006.00;4158445;28;20460;-71
2024/03/30 04:25:42;;;;;;;6.75;4.18;;;;;;;10.71;71.91;98013.44;4155555;28;20033;-71
2024/03/30 04:27:43;;;;;;;7.22;3.85;;;;;;;10.70;71.90;98006.44;4158352;28;20512;-71
2024/03/30 04:29:45;;;;;;;6.88;4.28;;;;;;;10.72;71.74;98001.72;4160700;28;20059;-71
2024/03/30 04:31:45;;;;;;;8.55;5.13;;;;;;;10.57;72.18;97999.16;4160624;28;20033;-71
2024/03/30 04:33:45;;;;;;;8.40;4.45;;;;;;;10.57;72.29;97995.66;4160286;28;20385;-72
2024/03/30 04:36:00;;;;;;;7.85;5.00;;;;;;;10.49;72.68;97995.78;4161696;28;20682;-72
2024/03/30 04:38:01;;;;;;;6.65;4.20;;;;;;;10.54;72.51;97999.53;4160034;28;20076;-71
2024/03/30 04:40:01;;;;;;;6.50;3.70;;;;;;;10.61;72.32;97994.25;4161727;28;20378;-72
2024/03/30 04:42:02;;;;;;;5.97;3.57;;;;;;;10.66;72.22;97988.31;4154717;28;20501;-72
2024/03/30 04:44:02;;;;;;;8.52;4.47;;;;;;;10.50;72.87;97989.44;4162192;28;20268;-72
2024/03/30 04:46:06;;;;;;;7.00;4.50;;;;;;;10.51;72.85;97999.09;4162135;28;20048;-71
2024/03/30 04:48:07;;;;;;;7.63;4.30;;;;;;;10.37;73.57;98004.34;4161340;28;20398;-72
2024/03/30 04:50:08;;;;;;;8.00;5.05;;;;;;;10.43;73.69;97997.41;4161470;28;20030;-71
2024/03/30 04:52:09;;;;;;;7.10;4.55;;;;;;;10.45;73.25;98000.69;4163738;28;20120;-71
2024/03/30 04:54:09;;;;;;;7.90;4.88;;;;;;;10.41;73.41;98008.28;4163421;28;20527;-72
2024/03/30 04:56:11;;;;;;;8.13;4.83;;;;;;;10.41;73.31;98013.63;4165239;28;20037;-71
2024/03/30 04:58:11;;;;;;;8.57;4.03;;;;;;;10.55;72.74;98008.38;4165672;28;20318;-72
2024/03/30 05:00:12;;;;;;;6.72;4.35;;;;;;;10.51;72.88;98020.47;4163726;28;20677;-72
2024/03/30 05:02:12;;;;;;;6.13;4.03;;;;;;;10.42;73.27;98022.47;4165012;28;20536;-71
2024/03/30 05:04:13;;;;;;;7.90;4.40;;;;;;;10.34;73.41;98014.56;4164816;28;20124;-72
2024/03/30 05:06:13;;;;;;;9.48;4.35;;;;;;;10.45;73.11;98014.91;4165249;28;20048;-72
2024/03/30 05:08:14;;;;;;;6.30;3.83;;;;;;;10.52;72.74;98012.28;4164306;28;20055;-72
2024/03/30 05:10:15;;;;;;;;;;;;;;;10.63;72.47;98018.91;4164673;28;20034;-72
2024/03/30 05:12:15;;;;;;;6.83;3.10;;;;;;;10.58;72.30;98005.34;4164501;28;20011;-72
2024/03/30 05:14:15;;;;;;;5.65;3.33;;;;;;;10.58;72.40;98005.34;4161858;28;20117;-71
2024/03/30 05:16:16;;;;;;;7.97;3.72;;;;;;;10.51;72.50;97999.09;4164816;28;20033;-72
2024/03/30 05:18:18;;;;;;;9.10;4.97;;;;;;;10.35;73.25;97993.00;4164135;28;20021;-72
2024/03/30 05:22:37;;;;;;;6.53;3.53;;;;;;;10.47;73.07;97998.66;4166019;28;20040;-72
2024/03/30 05:24:43;;;;;;;6.75;3.15;;;;;;;10.56;72.47;97994.81;4180012;28;20013;-73
2024/03/30 05:26:43;;;;;;;6.32;3.53;;;;;;;10.54;72.71;97998.72;4176996;28;20036;-71
2024/03/30 05:28:44;;;;;;;9.00;4.25;;;;;;;10.40;73.21;97995.94;4159989;28;20052;-72
2024/03/30 05:30:46;;;;;;;7.80;4.13;;;;;;;10.51;72.79;98005.28;4157964;28;20652;-72
2024/03/30 05:32:49;;;;;;;7.65;4.43;;;;;;;10.49;72.56;97995.78;4152838;28;20053;-72
2024/03/30 05:34:50;;;;;;;6.75;4.10;;;;;;;10.42;72.91;97998.44;4164691;28;20033;-72
2024/03/30 05:36:50;;;;;;;9.50;3.97;;;;;;;10.33;73.22;98003.03;4163399;28;20052;-72
2024/03/30 05:38:50;;;;;;;7.32;4.20;;;;;;;10.35;73.14;98009.03;4154283;28;20025;-71
2024/03/30 05:40:52;;;;;;;6.97;3.85;;;;;;;10.38;72.98;98014.03;4157477;28;20473;-71
2024/03/30 05:42:52;;;;;;;5.80;3.45;;;;;;;10.40;72.88;98011.16;4162006;28;20112;-71
2024/03/30 05:44:53;;;;;;;6.78;3.65;;;;;;;10.51;72.32;97999.94;4163804;28;20029;-71
2024/03/30 05:46:56;;;;;;;5.60;3.30;;;;;;;10.53;72.24;97997.88;4155644;28;20374;-71
2024/03/30 05:48:57;;;;;;;7.70;3.40;;;;;;;10.58;72.23;97994.66;4152515;28;20080;-71
2024/03/30 05:50:57;;;;;;;6.63;3.47;;;;;;;10.57;71.96;98004.50;4161894;28;20021;-71
2024/03/30 05:52:58;;;;;;;7.22;3.90;;;;;;;10.57;72.34;97998.34;4154410;28;20034;-71
2024/03/30 05:55:00;;;;;;;8.70;4.15;;;;;;;10.66;71.95;97996.31;4164091;28;20059;-71
2024/03/30 05:57:00;;;;;;;6.65;3.65;;;;;;;10.62;71.88;97990.53;4157474;28;20041;-72
2024/03/30 05:59:00;;;;;;;7.45;4.32;;;;;;;10.53;72.15;97997.06;4156982;28;20037;-73
2024/03/30 06:01:01;;;;;;;7.10;4.03;;;;;;;10.63;72.03;98004.75;4148615;28;20091;-71
2024/03/30 06:03:03;;;;;;;5.75;3.13;;;;;;;10.81;71.76;97990.88;4158292;28;20028;-71
2024/03/30 06:05:04;;;;;;;7.15;3.63;;;;;;;10.89;71.63;98001.41;4169424;28;20026;-71
2024/03/30 06:07:10;;;;;;;8.18;3.58;;;;;;;11.01;71.32;97996.31;4152077;28;20046;-71
2024/03/30 06:09:11;;;;;;;6.60;3.70;;;;;;;11.00;71.52;97992.84;4157231;28;20659;-71
2024/03/30 06:11:11;;;;;;;6.60;3.65;;;;;;;11.11;71.19;98001.31;4176437;28;20029;-71
2024/03/30 06:13:12;;;;;;;6.25;2.92;;;;;;;11.15;71.08;97998.06;4162134;28;20034;-71
2024/03/30 06:15:13;;;;;;;6.75;3.03;;;;;;;11.26;70.82;98003.84;4166179;28;20585;-72
2024/03/30 06:17:14;;;;;;;6.88;3.47;;;;;;;11.31;70.97;98004.06;4165914;28;20044;-72
2024/03/30 06:19:14;;;;;;;7.10;3.78;;;;;;;11.37;70.91;98004.09;4165974;28;20038;-71
2024/03/30 06:21:15;;;;;;;5.85;3.33;;;;;;;11.47;70.41;97997.56;4158762;28;20029;-72
2024/03/30 06:23:16;;;;;;;6.78;3.60;;;;;;;11.57;70.37;97998.00;4158480;28;20025;-70
2024/03/30 06:25:16;;;;;;;7.97;4.32;;;;;;;11.50;70.44;97995.28;4156016;28;20037;-71
2024/03/30 06:27:17;;;;;;;15.60;5.40;;;;;;;11.36;70.95;97996.28;4152725;28;20481;-71
2024/03/30 06:29:17;;;;;;;10.90;4.53;;;;;;;11.41;70.51;98001.03;4162462;28;20045;-71
2024/03/30 06:31:17;;;;;;;10.48;4.55;;;;;;;11.32;70.79;98001.22;4159857;28;20753;-71
2024/03/30 06:33:18;;;;;;;7.68;4.45;;;;;;;11.41;70.59;97993.81;4153157;28;20652;-72
2024/03/30 06:35:19;;;;;;;10.10;4.10;;;;;;;11.37;70.67;97989.91;4158226;28;20029;-72
2024/03/30 06:37:20;;;;;;;11.95;4.30;;;;;;;11.32;70.73;97979.81;4148282;28;20339;-72
2024/03/30 06:39:20;;;;;;;11.05;3.92;;;;;;;11.37;70.72;97971.19;4159592;28;20027;-72
2024/03/30 06:43:44;;;;;;;10.55;5.38;;;;;;;11.41;70.76;97971.63;4152812;28;20508;-71
2024/03/30 06:45:44;;;;;;;15.40;4.85;;;;;;;11.37;70.69;97977.34;4163793;28;20112;-71
2024/03/30 06:47:45;;;;;;;14.60;5.43;;;;;;;11.48;70.17;97980.47;4158328;28;20021;-72
2024/03/30 06:49:45;;;;;;;15.23;4.00;;;;;;;11.62;69.66;97971.44;4163000;28;20509;-72
2024/03/30 06:51:49;;;;;;;13.50;3.97;;;;;;;11.84;69.23;97977.50;4153251;28;20666;-72
2024/03/30 06:53:50;;;;;;;11.95;4.00;;;;;;;12.04;68.82;97982.06;4157916;28;20041;-75
2024/03/30 06:55:50;;;;;;;14.65;4.40;;;;;;;12.07;68.56;97972.81;4152099;28;20029;-72
2024/03/30 06:57:51;;;;;;;12.45;4.22;;;;;;;12.14;68.44;97969.06;4162392;28;20582;-71
2024/03/30 06:59:51;;;;;;;10.63;4.15;;;;;;;12.28;67.86;97964.53;4155515;28;20021;-71
2024/03/30 07:01:51;;;;;;;11.13;4.18;;;;;;;12.01;68.25;97964.53;4162574;28;20056;-71
2024/03/30 07:03:52;;;;;;;16.55;4.50;;;;;;;12.01;68.32;97961.06;4162865;28;20047;-71
2024/03/30 07:05:52;;;;;;;16.23;4.57;;;;;;;11.97;68.53;97951.72;4158851;28;20535;-71
2024/03/30 07:07:53;;;;;;;18.35;4.40;;;;;;;12.05;68.21;97938.19;4160753;28;20034;-72
2024/03/30 07:09:53;;;;;;;11.25;4.30;;;;;;;12.14;68.14;97944.97;4168397;28;20704;-71
2024/03/30 07:11:54;;;;;;;9.90;3.73;;;;;;;12.13;67.96;97935.31;4165108;28;20025;-71
2024/03/30 07:13:56;;;;;;;12.73;3.67;;;;;;;12.37;67.49;97934.88;4162112;28;20275;-71
2024/03/30 07:15:57;;;;;;;12.75;4.30;;;;;;;12.45;67.32;97934.66;4159408;28;20022;-71
2024/03/30 07:17:58;;;;;;;10.50;3.70;;;;;;;12.50;67.16;97940.22;4155899;28;20021;-71
2024/03/30 07:19:58;;;;;;;13.90;4.55;;;;;;;12.51;67.08;97939.19;4157317;28;20217;-71
2024/03/30 07:21:58;;;;;;;13.27;3.50;;;;;;;12.46;67.17;97937.13;4159538;28;20022;-71
2024/03/30 07:23:59;;;;;;;12.80;3.83;;;;;;;12.53;67.17;97942.47;4159904;28;20120;-71
2024/03/30 07:26:06;;;;;;;9.93;3.58;;;;;;;12.54;66.80;97949.50;4152725;28;20693;-71
2024/03/30 07:28:07;;;;;;;10.40;3.45;;;;;;;12.47;67.45;97948.66;4161803;28;20037;-71
2024/03/30 07:30:07;;;;;;;12.02;3.47;;;;;;;12.57;67.13;97957.09;4150521;28;20030;-72
2024/03/30 07:32:08;;;;;;;14.88;4.07;;;;;;;12.65;66.69;97956.06;4160498;28;20104;-71
2024/03/30 07:34:08;;;;;;;11.82;4.00;;;;;;;12.68;66.86;97965.53;4152384;28;20033;-71
2024/03/30 07:36:09;;;;;;;12.57;3.15;;;;;;;12.76;66.37;97954.59;4154837;28;20115;-71
2024/03/30 07:38:09;;;;;;;12.52;3.92;;;;;;;12.81;66.32;97957.47;4155752;28;20079;-71
2024/03/30 07:40:10;;;;;;;9.05;2.67;;;;;;;12.88;66.17;97960.94;4162628;28;20033;-71
2024/03/30 07:42:10;;;;;;;14.00;4.03;;;;;;;12.94;65.90;97959.28;4164193;28;20085;-71
2024/03/30 07:44:11;;;;;;;10.40;2.75;;;;;;;13.00;65.84;97960.31;4162188;28;20029;-71
2024/03/30 07:46:11;;;;;;;11.57;2.50;;;;;;;13.04;65.63;97967.72;4163999;28;20021;-71
2024/03/30 07:48:12;;;;;;;11.07;3.17;;;;;;;12.99;65.81;97961.34;4161793;28;20052;-71
2024/03/30 07:50:13;;;;;;;20.63;5.07;;;;;;;12.81;66.05;97960.16;4162847;28;20048;-70
2024/03/30 07:52:13;;;;;;;21.83;4.25;;;;;;;12.67;66.53;97961.19;4163302;28;20022;-71
2024/03/30 07:54:13;;;;;;;12.13;3.80;;;;;;;12.74;66.32;97954.00;4163745;28;20033;-72
2024/03/30 07:56:14;;;;;;;16.42;3.97;;;;;;;12.82;65.96;97960.97;4163696;28;20517;-72
2024/03/30 07:58:14;;;;;;;13.35;3.75;;;;;;;12.97;65.46;97964.25;4153591;28;20029;-71
2024/03/30 08:00:15;;;;;;;16.52;4.00;;;;;;;12.94;65.97;97965.47;4155715;28;20028;-71
2024/03/30 08:02:15;;;;;;;12.57;3.95;;;;;;;12.97;65.53;97961.56;4155608;28;20037;-72
2024/03/30 08:04:17;;;;;;;12.90;3.92;;;;;;;13.06;65.43;97962.13;4154663;28;20072;-71
2024/03/30 08:06:17;;;;;;;11.88;3.97;;;;;;;13.05;65.51;97955.97;4156459;28;20030;-70
2024/03/30 08:08:18;;;;;;;16.20;4.07;;;;;;;13.14;65.35;97961.88;4158855;28;20017;-68
2024/03/30 08:10:18;;;;;;;22.30;4.70;;;;;;;13.20;64.92;97962.91;4156533;28;20474;-69
2024/03/30 08:12:19;;;;;;;11.80;4.60;;;;;;;13.28;64.93;97954.59;4146811;28;20634;-71
2024/03/30 08:14:19;;;;;;;16.50;4.85;;;;;;;13.35;64.79;97958.09;4151756;28;20109;-71
2024/03/30 08:16:20;;;;;;;11.90;3.83;;;;;;;13.41;64.58;97948.41;4155507;28;20021;-71
2024/03/30 08:18:30;;;;;;;11.07;3.15;;;;;;;13.41;64.87;97956.47;4163484;28;20026;-72
2024/03/30 08:20:30;;;;;;;9.30;3.05;;;;;;;13.46;64.48;97962.00;4148113;28;20060;-71
2024/03/30 08:22:31;;;;;;;12.85;4.32;;;;;;;13.44;64.64;97961.38;4159496;28;20025;-71
2024/03/30 08:24:31;;;;;;;7.55;2.80;;;;;;;13.55;64.56;97965.28;4150147;28;20672;-70
2024/03/30 08:26:31;;;;;;;11.30;3.70;;;;;;;13.55;64.47;97958.03;4172695;28;20034;-72
2024/03/30 08:28:32;;;;;;;9.07;2.90;;;;;;;13.61;64.18;97958.19;4169177;28;20116;-72
2024/03/30 08:30:32;;;;;;;7.68;3.03;;;;;;;13.62;64.16;97957.16;4164272;28;20033;-71
2024/03/30 08:32:33;;;;;;;10.05;3.00;;;;;;;13.69;64.22;97956.09;4164186;28;20075;-71
2024/03/30 08:34:33;;;;;;;10.65;2.60;;;;;;;13.72;63.79;97960.19;4155782;28;20038;-70
2024/03/30 08:36:34;;;;;;;13.82;4.38;;;;;;;13.47;64.40;97946.69;4159473;28;20575;-71
2024/03/30 08:38:34;;;;;;;24.83;5.57;;;;;;;13.37;64.90;97931.06;4163243;28;20037;-71
2024/03/30 08:40:35;;;;;;;20.77;5.65;;;;;;;13.33;64.82;97924.44;4153942;28;20666;-71
2024/03/30 08:42:35;;;;;;;14.13;4.28;;;;;;;13.36;64.90;97929.41;4157769;28;20485;-70
2024/03/30 08:44:36;;;;;;;23.52;5.53;;;;;;;13.38;64.67;97938.06;4164898;28;20033;-71
2024/03/30 08:46:36;;;;;;;;;;;;;;;13.52;64.13;97926.22;4160538;28;20589;-71
2024/03/30 08:48:46;;;;;;;15.48;4.15;;;;;;;13.50;64.31;97931.03;4159442;28;19916;-72
2024/03/30 08:50:47;;;;;;;12.63;4.47;;;;;;;13.56;64.36;97937.34;4159256;28;20037;-71
2024/03/30 08:52:47;;;;;;;12.63;4.50;;;;;;;13.61;64.31;97942.09;4162726;28;20029;-71
2024/03/30 08:54:47;;;;;;;21.83;5.32;;;;;;;13.54;64.69;97936.78;4163930;28;20037;-71
2024/03/30 08:56:49;;;;;;;24.77;5.38;;;;;;;13.54;64.57;97934.91;4163991;28;20111;-71
2024/03/30 08:58:50;;;;;;;19.92;5.43;;;;;;;13.49;65.02;97933.91;4165362;28;20113;-71
2024/03/30 09:00:50;;;;;;;30.48;5.72;;;;;;;13.36;65.43;97937.44;4164855;28;20021;-71
2024/03/30 09:02:52;;;;;;;24.45;6.60;;;;;;;13.30;65.67;97946.38;4165177;28;20040;-71
2024/03/30 09:04:53;;;;;;;15.57;4.63;;;;;;;13.33;65.89;97943.22;4164988;28;20128;-71
2024/03/30 09:06:53;;;;;;;21.42;5.60;;;;;;;13.49;65.40;97944.63;4165590;28;20049;-71
2024/03/30 09:08:54;;;;;;;18.35;5.25;;;;;;;13.66;64.75;97939.59;4164674;28;20374;-71
2024/03/30 09:10:54;;;;;;;13.20;4.63;;;;;;;13.72;64.65;97933.34;4164031;28;20028;-71
2024/03/30 09:12:55;;;;;;;22.70;4.97;;;;;;;13.73;64.62;97930.47;4163825;28;20533;-71
2024/03/30 09:14:55;;;;;;;18.10;4.88;;;;;;;13.72;64.53;97930.66;4164874;28;20033;-71
2024/03/30 09:16:56;;;;;;;18.33;5.22;;;;;;;13.80;64.75;97937.63;4164908;28;20478;-71
2024/03/30 09:18:56;;;;;;;;;;;;;;;13.82;64.28;97933.69;4165386;28;20083;-71
2024/03/30 09:20:58;;;;;;;16.27;4.95;;;;;;;13.85;64.25;97949.38;4165305;28;20357;-71
2024/03/30 09:22:59;;;;;;;18.20;4.55;;;;;;;14.01;64.00;97939.13;4163547;28;20025;-71
2024/03/30 09:25:03;;;;;;;21.88;4.70;;;;;;;14.12;63.89;97932.25;4165473;28;20431;-70
2024/03/30 09:27:04;;;;;;;13.82;5.15;;;;;;;14.18;63.55;97937.53;4157349;28;20461;-71
2024/03/30 09:29:04;;;;;;;15.13;4.30;;;;;;;14.16;63.86;97934.28;4160714;28;20029;-71
2024/03/30 09:31:06;;;;;;;15.90;5.13;;;;;;;14.11;63.63;97931.41;4151309;28;20064;-72
2024/03/30 09:33:06;;;;;;;19.70;5.07;;;;;;;14.04;64.17;97933.34;4151286;28;20126;-70